Aviation Digital Data Service (ADDS)

Output produced by METARs form (1403 UTC 21 February 2019)
found at http://aviationweather.gov/metar/data/
 
METAR text: KRNT 211353Z AUTO 00000KT 10SM BKN019 00/M02 A3011 RMK AO2 SLP201 T00001017
Conditions at: KRNT (RENTON , WA, US) observed 1353 UTC 21 February 2019
Temperature: 0.0°C (32°F)
Dewpoint: -1.7°C (29°F) [RH = 88%]
Pressure (altimeter): 30.11 inches Hg (1019.7 mb)
[Sea-level pressure: 1020.1 mb]
Winds: calm
Visibility: 10 or more miles (16+ km)
Ceiling: 1900 feet AGL
Clouds: broken clouds at 1900 feet AGL
Weather: automated observation with no human augmentation;
there may or may not be significant weather present at this time

METAR text: KRNT 211253Z AUTO 00000KT 9SM BKN016 00/M02 A3010 RMK AO2 SLP196 T00001017
Conditions at: KRNT (RENTON , WA, US) observed 1253 UTC 21 February 2019
Temperature: 0.0°C (32°F)
Dewpoint: -1.7°C (29°F) [RH = 88%]
Pressure (altimeter): 30.10 inches Hg (1019.4 mb)
[Sea-level pressure: 1019.6 mb]
Winds: calm
Visibility: 9 miles (14 km)
Ceiling: 1600 feet AGL
Clouds: broken clouds at 1600 feet AGL
Weather: automated observation with no human augmentation;
there may or may not be significant weather present at this time